Time;durP1;ratioP1;P1;durP2;ratioP2;P2;SDS_P1;SDS_P2;PMS_P1;PMS_P2;Temp;Humidity;BMP_temperature;BMP_pressure;BME280_temperature;BME280_humidity;BME280_pressure;Samples;Min_cycle;Max_cycle;Signal;HPM_P1;HPM_P2
2021/04/13 07:56:48;;;;;;;;;;;;;;;20.02;32.43;98041.19;5097039;27;1284;-79
2021/04/13 07:59:27;;;;;;;;;;;;;;;21.24;29.96;98040.13;5096496;28;1002;-80
2021/04/13 08:01:53;;;;;;;;;;;;;;;21.54;29.38;98038.19;5097285;28;1187;-81
2021/04/13 08:04:26;;;;;;;;;;;;;;;21.63;29.36;98044.03;5096535;28;895;-80
2021/04/13 08:07:04;;;;;;;;;;;;;;;21.61;29.49;98038.03;5096441;28;753;-79
2021/04/13 08:09:36;;;;;;;;;;;;;;;21.64;29.29;98042.78;5080026;28;706;-80
2021/04/13 08:12:09;;;;;;;;;;;;;;;21.89;29.02;98050.63;5096381;28;916;-82
2021/04/13 08:14:36;;;;;;;;;;;;;;;21.79;28.93;98037.53;5095662;28;2334;-79
2021/04/13 08:17:11;;;;;;;;;;;;;;;21.76;29.33;98038.44;5079436;28;785;-78
2021/04/13 08:19:36;;;;;;;;;;;;;;;22.01;28.72;98037.75;5096205;28;637;-76
2021/04/13 08:22:05;;;;;;;;;;;;;;;21.83;28.90;98038.25;5097086;28;725;-72
2021/04/13 08:24:31;;;;;;;;;;;;;;;22.07;28.35;98044.47;5096770;28;1902;-74
2021/04/13 08:27:08;;;;;;;;;;;;;;;22.19;28.36;98048.63;5096096;28;582;-75
2021/04/13 08:29:41;;;;;;;;;;;;;;;22.20;28.49;98045.34;5095735;28;977;-75
2021/04/13 08:35:25;;;;;;;;;;;;;;;22.33;27.87;98037.69;5096235;28;606;-75
2021/04/13 08:37:57;;;;;;;;;;;;;;;22.50;27.97;98034.78;5096513;28;626;-74
2021/04/13 08:40:34;;;;;;;;;;;;;;;22.28;27.94;98023.28;5096210;28;614;-75
2021/04/13 08:43:15;;;;;;;;;;;;;;;22.51;27.75;98033.53;5095971;28;614;-74
2021/04/13 08:45:44;;;;;;;;;;;;;;;22.57;27.84;98028.88;5096525;28;2023;-74
2021/04/13 08:48:24;;;;;;;;;;;;;;;22.68;27.73;98029.34;5095455;28;860;-77
2021/04/13 08:50:51;;;;;;;;;;;;;;;22.56;27.76;98032.97;5096137;28;884;-75
2021/04/13 08:53:31;;;;;;;;;;;;;;;22.77;27.35;98032.31;5095544;28;1225;-79
2021/04/13 08:56:04;;;;;;;;;;;;;;;22.40;27.92;98024.53;5095612;28;1035;-77
2021/04/13 08:58:37;;;;;;;;;;;;;;;22.68;27.63;98012.31;5078729;28;1069;-83
2021/04/13 09:01:02;;;;;;;;;;;;;;;22.54;27.73;98024.13;5095299;28;784;-76
2021/04/13 09:03:40;;;;;;;;;;;;;;;22.41;28.11;98024.09;5094998;28;1157;-76
2021/04/13 09:06:19;;;;;;;;;;;;;;;22.53;28.10;98019.69;5093682;28;1972;-75
2021/04/13 09:08:52;;;;;;;;;;;;;;;22.16;28.53;98021.97;5049140;28;910;-79
2021/04/13 09:11:28;;;;;;;;;;;;;;;21.98;28.58;98016.00;5082525;28;659;-79
2021/04/13 09:13:56;;;;;;;;;;;;;;;21.80;28.83;98022.94;5081632;28;834;-79
2021/04/13 09:16:23;;;;;;;;;;;;;;;21.69;29.15;98016.75;5082663;28;1066;-80
2021/04/13 09:18:50;;;;;;;;;;;;;;;21.83;29.00;98010.72;5081700;28;907;-82
2021/04/13 09:21:28;;;;;;;;;;;;;;;21.63;28.94;98003.59;5082495;28;867;-80
2021/04/13 09:23:55;;;;;;;;;;;;;;;21.56;28.99;97996.09;5082544;28;702;-81
2021/04/13 09:26:22;;;;;;;;;;;;;;;21.41;29.15;98001.34;5082184;28;1883;-80
2021/04/13 09:28:53;;;;;;;;;;;;;;;21.43;29.28;98000.88;5081805;28;626;-79
2021/04/13 09:31:42;;;;;;;;;;;;;;;21.23;29.35;98001.75;5080979;28;946;-79
2021/04/13 09:34:09;;;;;;;;;;;;;;;21.26;29.34;98000.88;5081489;28;989;-80
2021/04/13 09:37:04;;;;;;;;;;;;;;;21.13;29.23;98002.78;5081875;28;718;-80
2021/04/13 09:39:30;;;;;;;;;;;;;;;21.22;29.20;97994.50;5081674;28;1262;-78
2021/04/13 09:42:15;;;;;;;;;;;;;;;21.23;29.22;97996.06;5081253;28;1038;-78
2021/04/13 09:44:58;;;;;;;;;;;;;;;21.22;29.12;97999.34;5080668;28;1910;-78
2021/04/13 09:47:23;;;;;;;;;;;;;;;21.17;28.88;97989.38;5080421;28;1004;-78
2021/04/13 09:50:03;;;;;;;;;;;;;;;21.01;29.19;98000.69;5080219;28;1237;-78
2021/04/13 09:52:48;;;;;;;;;;;;;;;20.98;29.55;97995.91;5080947;28;1010;-77
2021/04/13 09:55:32;;;;;;;;;;;;;;;21.10;28.91;97997.25;5081684;28;1026;-79
2021/04/13 09:58:21;;;;;;;;;;;;;;;21.10;29.18;97992.38;5081720;28;681;-78
2021/04/13 10:00:49;;;;;;;;;;;;;;;21.16;29.01;97984.16;5080614;28;1003;-79
2021/04/13 10:03:23;;;;;;;;;;;;;;;21.20;28.40;97991.31;5081188;28;843;-79
2021/04/13 10:05:49;;;;;;;;;;;;;;;20.91;29.05;97991.22;5081513;28;1909;-80
2021/04/13 10:08:15;;;;;;;;;;;;;;;21.16;28.91;97984.94;5080912;28;840;-79
2021/04/13 10:10:59;;;;;;;;;;;;;;;20.97;28.95;97983.00;5081570;28;626;-78
2021/04/13 10:13:27;;;;;;;;;;;;;;;20.79;29.35;97983.44;5081298;28;741;-78
2021/04/13 10:15:59;;;;;;;;;;;;;;;20.97;29.07;97985.81;5081275;28;760;-79
2021/04/13 10:18:44;;;;;;;;;;;;;;;20.76;29.33;97982.28;5079988;28;851;-79
2021/04/13 10:21:19;;;;;;;;;;;;;;;20.78;29.35;97976.97;5081344;28;594;-79
2021/04/13 10:24:03;;;;;;;;;;;;;;;20.58;29.55;97972.63;5080336;28;622;-81
2021/04/13 10:26:35;;;;;;;;;;;;;;;20.63;29.37;97981.38;5080992;28;1898;-78
2021/04/13 10:29:03;;;;;;;;;;;;;;;20.55;29.72;97974.28;5074375;28;931;-81
2021/04/13 10:31:54;;;;;;;;;;;;;;;20.56;29.42;97975.88;5080409;28;943;-79
2021/04/13 10:34:29;;;;;;;;;;;;;;;20.64;29.41;97973.69;5080012;28;984;-80
2021/04/13 10:37:04;;;;;;;;;;;;;;;20.70;29.49;97975.56;5080996;28;939;-80
2021/04/13 10:39:29;;;;;;;;;;;;;;;20.72;29.59;97967.41;5080124;28;769;-80
2021/04/13 10:42:13;;;;;;;;;;;;;;;20.86;29.03;97976.81;5080963;28;599;-79
2021/04/13 10:44:45;;;;;;;;;;;;;;;20.71;29.42;97971.47;5080733;28;1976;-80
2021/04/13 10:47:25;;;;;;;;;;;;;;;20.80;29.13;97971.69;5079614;28;1022;-77
2021/04/13 10:50:18;;;;;;;;;;;;;;;21.00;29.04;97965.94;5079708;28;997;-78
2021/04/13 10:52:58;;;;;;;;;;;;;;;20.87;29.14;97967.06;5058190;28;955;-75
2021/04/13 10:55:33;;;;;;;;;;;;;;;21.11;28.75;97968.50;5093266;28;945;-77
2021/04/13 10:58:14;;;;;;;;;;;;;;;21.42;28.72;97971.00;5093320;28;593;-74
2021/04/13 11:00:59;;;;;;;;;;;;;;;22.06;27.50;97964.31;5060896;28;657;-78
2021/04/13 11:03:43;;;;;;;;;;;;;;;22.16;27.44;97970.97;5073635;28;998;-72
2021/04/13 11:06:27;;;;;;;;;;;;;;;22.17;27.23;97964.03;5080179;28;1902;-70
2021/04/13 11:08:55;;;;;;;;;;;;;;;22.26;27.38;97966.22;5080065;28;865;-78
2021/04/13 11:11:29;;;;;;;;;;;;;;;22.44;26.87;97962.88;5080092;28;994;-77
2021/04/13 11:13:58;;;;;;;;;;;;;;;22.46;27.01;97966.03;5079759;28;715;-74
2021/04/13 11:16:35;;;;;;;;;;;;;;;22.51;26.98;97968.31;5080158;28;578;-76
2021/04/13 11:19:07;;;;;;;;;;;;;;;22.41;27.02;97966.59;5079647;28;990;-72
2021/04/13 11:21:48;;;;;;;;;;;;;;;22.46;26.86;97966.03;5069982;28;1118;-70
2021/04/13 11:24:30;;;;;;;;;;;;;;;22.61;27.08;97958.69;5080131;28;582;-74
2021/04/13 11:27:14;;;;;;;;;;;;;;;22.44;27.06;97960.81;5096027;28;1267;-73
2021/04/13 11:29:46;;;;;;;;;;;;;;;22.35;27.32;97961.47;5079345;28;823;-69
2021/04/13 11:32:30;;;;;;;;;;;;;;;22.70;26.68;97953.13;5112837;28;578;-70
2021/04/13 11:35:16;;;;;;;;;;;;;;;22.91;26.26;97956.56;5074679;28;1100;-68
2021/04/13 11:38:20;;;;;;;;;;;;;;;22.62;26.77;97952.53;5088531;28;1015;-68
2021/04/13 11:40:49;;;;;;;;;;;;;;;22.72;26.52;97955.50;5040584;28;1163;-70
2021/04/13 11:43:15;;;;;;;;;;;;;;;23.03;26.18;97948.00;5055715;28;1057;-67
2021/04/13 11:45:48;;;;;;;;;;;;;;;23.12;25.79;97939.59;5082090;28;1914;-74
2021/04/13 11:48:13;;;;;;;;;;;;;;;23.20;25.78;97945.81;5072010;28;1020;-70
2021/04/13 11:50:40;;;;;;;;;;;;;;;23.16;25.77;97939.50;5062194;28;610;-70
2021/04/13 11:53:05;;;;;;;;;;;;;;;23.21;26.23;97936.06;5063205;28;1350;-68
2021/04/13 11:58:42;;;;;;;;;;;;;;;22.91;26.57;97934.66;5135442;27;1297;-67
2021/04/13 12:01:14;;;;;;;;;;;;;;;22.95;26.02;97945.84;5115335;28;861;-66
2021/04/13 12:04:02;;;;;;;;;;;;;;;23.01;26.09;97927.03;5116801;28;1068;-69
2021/04/13 12:06:47;;;;;;;;;;;;;;;22.66;26.45;97926.91;5103444;28;1173;-84
2021/04/13 12:09:33;;;;;;;;;;;;;;;22.35;27.20;97938.81;5121264;28;932;-86
2021/04/13 12:11:59;;;;;;;;;;;;;;;22.34;27.06;97927.94;5094806;28;1261;-87
2021/04/13 12:14:38;;;;;;;;;;;;;;;22.34;27.12;97920.22;5120383;28;1154;-84
2021/04/13 12:17:05;;;;;;;;;;;;;;;22.26;26.97;97930.16;5104447;28;1954;-85
2021/04/13 12:19:30;;;;;;;;;;;;;;;22.12;27.41;97918.47;5120242;28;948;-84
2021/04/13 12:21:57;;;;;;;;;;;;;;;22.15;27.13;97926.88;5116519;28;977;-85
2021/04/13 12:24:37;;;;;;;;;;;;;;;22.12;27.44;97913.59;5148351;27;983;-84
2021/04/13 12:27:35;;;;;;;;;;;;;;;22.10;27.41;97921.72;5103538;28;1302;-83
2021/04/13 12:30:26;;;;;;;;;;;;;;;22.07;27.50;97925.44;5073994;28;1287;-84
2021/04/13 12:32:51;;;;;;;;;;;;;;;21.91;27.52;97925.53;5107162;28;1103;-84
2021/04/13 12:35:36;;;;;;;;;;;;;;;21.97;27.39;97912.44;5116025;28;683;-82
2021/04/13 12:38:01;;;;;;;;;;;;;;;22.04;27.38;97912.19;5108999;28;1940;-83
2021/04/13 12:40:28;;;;;;;;;;;;;;;22.05;27.21;97910.94;5136553;28;956;-83
2021/04/13 12:42:54;;;;;;;;;;;;;;;22.01;27.41;97890.41;5103841;28;1020;-86
2021/04/13 12:45:22;;;;;;;;;;;;;;;22.02;27.28;97903.34;5104584;28;1003;-83
2021/04/13 12:47:49;;;;;;;;;;;;;;;22.03;27.21;97904.94;5104609;28;1194;-86
2021/04/13 12:50:22;;;;;;;;;;;;;;;21.88;27.27;97892.44;5104431;28;925;-85
2021/04/13 12:52:48;;;;;;;;;;;;;;;21.84;27.36;97893.34;5121025;28;1131;-85
2021/04/13 12:55:13;;;;;;;;;;;;;;;21.93;27.57;97883.41;5104289;28;921;-86
2021/04/13 12:57:49;;;;;;;;;;;;;;;21.85;27.33;97886.44;5121939;28;1886;-85
2021/04/13 13:00:14;;;;;;;;;;;;;;;21.81;27.42;97887.78;5105776;28;919;-84
2021/04/13 13:02:42;;;;;;;;;;;;;;;21.77;27.39;97887.91;5122668;28;1344;-86
2021/04/13 13:05:23;;;;;;;;;;;;;;;21.63;27.95;97884.69;5121451;28;979;-85
2021/04/13 13:07:53;;;;;;;;;;;;;;;21.66;27.71;97887.41;5118581;28;935;-86
2021/04/13 13:10:19;;;;;;;;;;;;;;;21.80;27.41;97880.53;5103499;28;899;-83
2021/04/13 13:12:45;;;;;;;;;;;;;;;21.81;27.30;97882.94;5103518;28;855;-82
2021/04/13 13:15:12;;;;;;;;;;;;;;;21.89;27.30;97877.03;5090212;28;825;-83
2021/04/13 13:17:41;;;;;;;;;;;;;;;21.76;27.49;97880.66;5126926;28;1890;-85
2021/04/13 13:20:08;;;;;;;;;;;;;;;21.73;27.60;97870.19;5093528;28;1121;-85
2021/04/13 13:22:34;;;;;;;;;;;;;;;21.63;27.81;97865.66;5121791;28;914;-84
2021/04/13 13:25:32;;;;;;;;;;;;;;;21.73;27.44;97870.19;5124831;27;885;-83
2021/04/13 13:28:08;;;;;;;;;;;;;;;21.60;27.90;97866.53;5056909;28;1192;-81
2021/04/13 13:30:33;;;;;;;;;;;;;;;21.66;27.67;97863.94;5060485;28;980;-80
2021/04/13 13:32:59;;;;;;;;;;;;;;;21.67;27.51;97857.06;5120176;28;833;-80
2021/04/13 13:35:25;;;;;;;;;;;;;;;21.70;27.43;97862.59;5120594;28;822;-79
2021/04/13 13:37:54;;;;;;;;;;;;;;;21.55;27.66;97864.25;5102315;28;1901;-79
2021/04/13 13:40:23;;;;;;;;;;;;;;;21.77;27.32;97862.41;5118749;28;901;-78
2021/04/13 13:42:49;;;;;;;;;;;;;;;21.70;27.50;97859.75;5118522;28;803;-79
2021/04/13 13:45:27;;;;;;;;;;;;;;;21.65;27.72;97857.47;5103119;28;901;-82
2021/04/13 13:47:53;;;;;;;;;;;;;;;21.69;27.56;97858.19;5120500;28;635;-78
2021/04/13 13:50:36;;;;;;;;;;;;;;;21.63;27.48;97854.31;5100989;28;1075;-78
2021/04/13 13:53:02;;;;;;;;;;;;;;;21.66;27.69;97853.44;5117878;28;911;-78
2021/04/13 13:55:29;;;;;;;;;;;;;;;21.63;27.71;97853.53;5117534;28;950;-77
2021/04/13 13:57:55;;;;;;;;;;;;;;;21.67;27.41;97852.19;5101611;28;1894;-78
2021/04/13 14:00:31;;;;;;;;;;;;;;;21.71;27.40;97850.06;5102033;28;617;-77
2021/04/13 14:03:09;;;;;;;;;;;;;;;21.59;27.49;97847.97;5101757;28;721;-77
2021/04/13 14:05:35;;;;;;;;;;;;;;;21.60;27.62;97846.72;5102535;28;888;-78
2021/04/13 14:08:21;;;;;;;;;;;;;;;21.65;27.51;97846.16;5118444;28;820;-80
2021/04/13 14:10:47;;;;;;;;;;;;;;;21.55;27.93;97848.09;5102241;28;1011;-78
2021/04/13 14:13:18;;;;;;;;;;;;;;;21.57;27.60;97839.13;5122909;27;1074;-79
2021/04/13 14:15:45;;;;;;;;;;;;;;;21.59;27.71;97842.28;5103120;28;617;-79
2021/04/13 14:18:20;;;;;;;;;;;;;;;22.09;27.47;97840.81;5119105;28;1906;-77
2021/04/13 14:21:05;;;;;;;;;;;;;;;22.30;27.14;97845.81;5100976;28;904;-78
2021/04/13 14:23:31;;;;;;;;;;;;;;;22.49;27.06;97846.06;5095562;28;966;-76
2021/04/13 14:25:57;;;;;;;;;;;;;;;22.19;27.12;97859.53;5102190;28;1133;-78
2021/04/13 14:28:26;;;;;;;;;;;;;;;21.86;27.71;97844.72;5101252;28;978;-77
2021/04/13 14:30:53;;;;;;;;;;;;;;;21.69;27.99;97852.53;5100957;28;629;-78
2021/04/13 14:33:20;;;;;;;;;;;;;;;21.63;28.10;97847.88;5100300;28;965;-77
2021/04/13 14:35:45;;;;;;;;;;;;;;;21.58;28.08;97852.03;5100276;28;835;-78
2021/04/13 14:38:12;;;;;;;;;;;;;;;21.68;28.16;97844.47;5100480;28;1976;-78
2021/04/13 14:40:37;;;;;;;;;;;;;;;21.65;28.32;97840.50;5084149;28;1134;-78
2021/04/13 14:43:03;;;;;;;;;;;;;;;21.65;28.09;97842.53;5101313;28;719;-78
2021/04/13 14:45:29;;;;;;;;;;;;;;;21.68;27.99;97839.59;5101473;28;552;-79
2021/04/13 14:47:59;;;;;;;;;;;;;;;21.63;28.35;97843.00;5100596;28;602;-78
2021/04/13 14:50:25;;;;;;;;;;;;;;;21.75;27.99;97849.91;5083425;28;833;-77
2021/04/13 14:52:52;;;;;;;;;;;;;;;21.79;27.72;97840.09;5100121;28;843;-80
2021/04/13 14:55:18;;;;;;;;;;;;;;;21.66;27.92;97836.44;5100683;28;880;-79
2021/04/13 14:57:45;;;;;;;;;;;;;;;21.54;28.57;97840.00;5100591;28;1905;-79
2021/04/13 15:00:12;;;;;;;;;;;;;;;21.46;28.32;97838.66;5100386;28;789;-79
2021/04/13 15:02:38;;;;;;;;;;;;;;;21.53;28.23;97844.09;5101512;28;628;-79
2021/04/13 15:05:04;;;;;;;;;;;;;;;21.47;28.37;97845.91;5101470;28;673;-79
2021/04/13 15:07:30;;;;;;;;;;;;;;;21.55;28.38;97844.44;5101615;28;981;-79
2021/04/13 15:09:58;;;;;;;;;;;;;;;21.48;28.32;97848.28;5099621;28;955;-78
2021/04/13 15:12:24;;;;;;;;;;;;;;;21.49;28.29;97846.22;5101190;28;831;-78
2021/04/13 15:14:51;;;;;;;;;;;;;;;21.62;28.13;97841.41;5083240;28;1111;-79
2021/04/13 15:17:17;;;;;;;;;;;;;;;22.08;27.52;97844.88;5100316;28;1897;-79
2021/04/13 15:19:42;;;;;;;;;;;;;;;22.37;27.11;97850.47;5082978;28;954;-78
2021/04/13 15:22:08;;;;;;;;;;;;;;;22.28;27.22;97842.66;5100466;28;808;-79
2021/04/13 15:24:33;;;;;;;;;;;;;;;21.91;27.91;97834.88;5100367;28;872;-78
2021/04/13 15:26:59;;;;;;;;;;;;;;;21.78;28.10;97837.72;5099717;28;701;-77
2021/04/13 15:29:25;;;;;;;;;;;;;;;21.63;28.22;97840.16;5100425;28;590;-77
2021/04/13 15:31:54;;;;;;;;;;;;;;;21.68;27.93;97845.28;5100119;28;649;-77
2021/04/13 15:34:45;;;;;;;;;;;;;;;21.58;28.38;97840.72;5100173;28;853;-78
2021/04/13 15:37:31;;;;;;;;;;;;;;;21.65;28.16;97834.84;5101407;28;1874;-82
2021/04/13 15:39:57;;;;;;;;;;;;;;;21.62;28.13;97832.91;5100635;28;1012;-82
2021/04/13 15:42:23;;;;;;;;;;;;;;;21.61;28.14;97837.00;5088547;28;1481;-83
2021/04/13 15:44:50;;;;;;;;;;;;;;;21.60;28.29;97832.56;5104642;28;801;-85
2021/04/13 15:47:17;;;;;;;;;;;;;;;21.63;28.22;97822.38;5105583;28;852;-85
2021/04/13 15:49:43;;;;;;;;;;;;;;;21.58;28.33;97829.38;5088127;28;1146;-84
2021/04/13 15:52:09;;;;;;;;;;;;;;;21.64;28.38;97824.75;5089731;28;1154;-85
2021/04/13 15:54:35;;;;;;;;;;;;;;;22.20;27.50;97832.00;5088539;28;1310;-85
2021/04/13 15:57:01;;;;;;;;;;;;;;;22.26;27.72;97827.34;5104939;28;1964;-81
2021/04/13 15:59:28;;;;;;;;;;;;;;;22.00;27.59;97826.50;5121308;28;868;-81
2021/04/13 16:01:55;;;;;;;;;;;;;;;21.89;27.67;97814.72;5123098;28;618;-84
2021/04/13 16:04:20;;;;;;;;;;;;;;;21.63;27.93;97823.16;5103217;28;1157;-80
2021/04/13 16:06:46;;;;;;;;;;;;;;;21.60;28.40;97826.88;5118604;28;863;-87
2021/04/13 16:09:13;;;;;;;;;;;;;;;21.60;28.34;97818.41;5097830;28;1027;-86
2021/04/13 16:11:39;;;;;;;;;;;;;;;21.45;28.46;97817.22;5095287;28;1039;-86
2021/04/13 16:14:06;;;;;;;;;;;;;;;21.52;28.58;97819.88;5096833;28;1308;-86
2021/04/13 16:16:32;;;;;;;;;;;;;;;21.64;27.99;97812.63;5093375;28;1961;-87
2021/04/13 16:19:00;;;;;;;;;;;;;;;21.61;28.50;97817.19;5097254;28;904;-87
2021/04/13 16:21:27;;;;;;;;;;;;;;;21.60;28.39;97818.41;5112715;28;1015;-86
2021/04/13 16:23:53;;;;;;;;;;;;;;;21.49;28.34;97806.59;5080410;28;1128;-87
2021/04/13 16:26:20;;;;;;;;;;;;;;;21.54;28.28;97811.72;5096076;28;884;-86
2021/04/13 16:29:03;;;;;;;;;;;;;;;21.58;28.19;97818.06;5097026;28;1222;-86
2021/04/13 16:31:41;;;;;;;;;;;;;;;21.56;28.19;97814.91;5112404;28;1044;-87
2021/04/13 16:34:07;;;;;;;;;;;;;;;21.92;27.85;97814.63;5112826;28;1079;-87
2021/04/13 16:36:35;;;;;;;;;;;;;;;22.22;27.52;97821.00;5129415;28;1954;-86
2021/04/13 16:39:10;;;;;;;;;;;;;;;22.16;27.63;97806.59;5096939;28;1197;-87
2021/04/13 16:41:37;;;;;;;;;;;;;;;21.72;27.88;97816.84;5113204;28;786;-86
2021/04/13 16:44:05;;;;;;;;;;;;;;;21.77;27.84;97808.59;5115331;28;943;-87
2021/04/13 16:46:31;;;;;;;;;;;;;;;21.65;27.83;97817.84;5116502;28;655;-86
2021/04/13 16:48:58;;;;;;;;;;;;;;;21.56;28.05;97810.03;5117052;28;1157;-87
2021/04/13 16:51:33;;;;;;;;;;;;;;;21.71;27.96;97815.25;5116691;28;838;-86
2021/04/13 16:54:05;;;;;;;;;;;;;;;21.61;28.26;97822.06;5100733;28;1088;-86
2021/04/13 16:56:34;;;;;;;;;;;;;;;21.55;28.41;97813.28;5100104;28;1984;-86
2021/04/13 16:59:04;;;;;;;;;;;;;;;21.56;28.73;97810.03;5100652;28;1051;-86
2021/04/13 17:01:50;;;;;;;;;;;;;;;21.55;28.67;97814.09;5099129;28;1150;-87
2021/04/13 17:04:38;;;;;;;;;;;;;;;21.46;28.78;97810.34;5115608;28;1328;-87
2021/04/13 17:07:10;;;;;;;;;;;;;;;21.59;28.59;97806.28;5112956;28;1020;-86
2021/04/13 17:09:37;;;;;;;;;;;;;;;21.64;28.41;97804.94;5113282;28;1055;-86
2021/04/13 17:12:14;;;;;;;;;;;;;;;21.53;28.51;97804.47;5099655;28;856;-87
2021/04/13 17:14:43;;;;;;;;;;;;;;;21.61;28.33;97811.50;5134271;28;1220;-87
2021/04/13 17:17:18;;;;;;;;;;;;;;;21.58;28.59;97806.75;5099320;28;1955;-86
2021/04/13 17:19:45;;;;;;;;;;;;;;;21.56;28.65;97806.41;5133175;28;847;-86
2021/04/13 17:22:16;;;;;;;;;;;;;;;21.55;28.65;97799.94;5081671;28;1142;-86
2021/04/13 17:24:43;;;;;;;;;;;;;;;21.41;29.01;97802.41;5117318;28;1054;-86
2021/04/13 17:27:10;;;;;;;;;;;;;;;21.52;28.87;97803.66;5082504;28;1087;-86
2021/04/13 17:29:56;;;;;;;;;;;;;;;21.43;28.93;97814.06;5147648;27;711;-86
2021/04/13 17:32:24;;;;;;;;;;;;;;;21.98;28.12;97800.69;5098831;28;1043;-87
2021/04/13 17:34:50;;;;;;;;;;;;;;;22.25;27.39;97815.22;5098833;28;1090;-87
2021/04/13 17:37:22;;;;;;;;;;;;;;;22.16;27.49;97806.59;5115087;28;1914;-86
2021/04/13 17:39:48;;;;;;;;;;;;;;;21.93;27.86;97815.41;5116211;28;1132;-86
2021/04/13 17:42:43;;;;;;;;;;;;;;;21.71;28.13;97818.91;5098528;28;1298;-86
2021/04/13 17:45:11;;;;;;;;;;;;;;;21.55;28.14;97813.28;5099609;28;1174;-87
2021/04/13 17:47:39;;;;;;;;;;;;;;;21.57;28.53;97817.28;5115529;28;1176;-86
2021/04/13 17:50:20;;;;;;;;;;;;;;;21.58;28.58;97818.06;5115573;28;924;-87
2021/04/13 17:52:46;;;;;;;;;;;;;;;21.53;28.75;97821.44;5115800;28;1074;-86
2021/04/13 17:55:18;;;;;;;;;;;;;;;21.59;28.68;97822.47;5099184;28;1107;-87
2021/04/13 17:57:48;;;;;;;;;;;;;;;21.61;28.45;97825.66;5132131;28;1886;-87
2021/04/13 18:00:16;;;;;;;;;;;;;;;21.66;28.27;97830.78;5098653;28;1098;-87
2021/04/13 18:02:51;;;;;;;;;;;;;;;21.74;28.40;97829.31;5132506;28;832;-87
2021/04/13 18:05:39;;;;;;;;;;;;;;;21.67;28.64;97834.41;5098004;28;1067;-86
2021/04/13 18:08:08;;;;;;;;;;;;;;;21.55;28.78;97833.94;5098357;28;887;-87
2021/04/13 18:10:35;;;;;;;;;;;;;;;21.59;28.67;97828.13;5098529;28;1212;-86
2021/04/13 18:13:23;;;;;;;;;;;;;;;21.49;28.75;97829.25;5115960;28;849;-87
2021/04/13 18:15:56;;;;;;;;;;;;;;;21.48;28.54;97831.28;5114898;28;1171;-87
2021/04/13 18:18:25;;;;;;;;;;;;;;;21.53;28.47;97832.78;5115360;28;1980;-87
2021/04/13 18:20:54;;;;;;;;;;;;;;;21.60;28.60;97832.56;5097394;28;884;-87
2021/04/13 18:23:22;;;;;;;;;;;;;;;21.56;28.80;97831.88;5115004;28;888;-86
2021/04/13 18:26:01;;;;;;;;;;;;;;;21.61;28.53;97822.84;5114481;28;1034;-86
2021/04/13 18:28:34;;;;;;;;;;;;;;;21.57;28.80;97817.28;5099442;28;1174;-87
2021/04/13 18:31:03;;;;;;;;;;;;;;;22.07;27.99;97820.63;5114255;28;1050;-87
2021/04/13 18:33:31;;;;;;;;;;;;;;;22.28;27.59;97817.16;5132611;28;629;-86
2021/04/13 18:36:01;;;;;;;;;;;;;;;22.02;27.61;97816.34;5113912;28;1065;-87
2021/04/13 18:38:33;;;;;;;;;;;;;;;21.81;28.19;97817.78;5114950;28;1077;-86
2021/04/13 18:41:01;;;;;;;;;;;;;;;21.85;27.98;97815.63;5097270;28;1253;-87
2021/04/13 18:43:52;;;;;;;;;;;;;;;21.73;28.22;97815.59;5115328;28;780;-87
2021/04/13 18:46:20;;;;;;;;;;;;;;;21.67;28.52;97809.72;5103982;28;1194;-86
2021/04/13 18:48:46;;;;;;;;;;;;;;;21.65;28.46;97809.34;5115201;28;1260;-87
2021/04/13 18:51:29;;;;;;;;;;;;;;;21.59;28.67;97813.97;5130667;28;885;-87
2021/04/13 18:53:57;;;;;;;;;;;;;;;21.69;28.38;97804.38;5097731;28;975;-86
2021/04/13 18:56:31;;;;;;;;;;;;;;;21.49;28.64;97798.91;5113974;28;1886;-87
2021/04/13 18:59:20;;;;;;;;;;;;;;;21.39;28.99;97793.53;5098298;28;1114;-87
2021/04/13 19:01:47;;;;;;;;;;;;;;;21.43;28.74;97785.75;5120947;28;1214;-86
2021/04/13 19:04:13;;;;;;;;;;;;;;;21.87;28.40;97794.56;5115063;28;999;-86
2021/04/13 19:06:44;;;;;;;;;;;;;;;22.34;27.53;97784.16;5095733;28;1216;-87
2021/04/13 19:09:12;;;;;;;;;;;;;;;22.46;27.07;97784.59;5081479;28;1213;-88
2021/04/13 19:11:39;;;;;;;;;;;;;;;21.93;27.74;97784.25;5097286;28;1165;-86
2021/04/13 19:14:13;;;;;;;;;;;;;;;21.64;28.22;97793.59;5131687;28;805;-86
2021/04/13 19:16:44;;;;;;;;;;;;;;;21.54;28.36;97786.22;5114049;28;1975;-86
2021/04/13 19:19:14;;;;;;;;;;;;;;;21.62;28.52;97786.81;5097820;28;625;-86
2021/04/13 19:21:44;;;;;;;;;;;;;;;21.63;28.47;97780.69;5096578;28;1007;-87
2021/04/13 19:24:15;;;;;;;;;;;;;;;21.57;28.81;97779.69;5114043;28;1262;-87
2021/04/13 19:27:03;;;;;;;;;;;;;;;21.59;28.71;97780.00;5096814;28;733;-86
2021/04/13 19:29:32;;;;;;;;;;;;;;;21.51;28.61;97787.94;5106113;28;1032;-87
2021/04/13 19:31:59;;;;;;;;;;;;;;;21.43;28.85;97785.75;5096563;28;1067;-86
2021/04/13 19:34:28;;;;;;;;;;;;;;;21.52;28.90;97786.69;5114793;28;1176;-87
2021/04/13 19:36:58;;;;;;;;;;;;;;;22.06;28.17;97785.03;5096240;28;1920;-87
2021/04/13 19:39:24;;;;;;;;;;;;;;;22.39;27.59;97790.50;5097087;28;1257;-87
2021/04/13 19:42:08;;;;;;;;;;;;;;;22.20;27.55;97781.78;5096516;28;1063;-87
2021/04/13 19:44:35;;;;;;;;;;;;;;;21.72;28.43;97785.72;5114264;28;694;-87
2021/04/13 19:47:04;;;;;;;;;;;;;;;21.73;28.36;97790.91;5096285;28;884;-86
2021/04/13 19:49:32;;;;;;;;;;;;;;;21.67;28.62;97787.06;5114502;28;1049;-87
2021/04/13 19:52:04;;;;;;;;;;;;;;;21.66;28.55;97788.31;5095866;28;1239;-86
2021/04/13 19:54:33;;;;;;;;;;;;;;;21.71;28.55;97781.25;5144616;27;834;-86
2021/04/13 19:56:59;;;;;;;;;;;;;;;21.55;28.63;97771.66;5109679;28;1890;-86
2021/04/13 19:59:27;;;;;;;;;;;;;;;21.48;29.02;97780.34;5094095;28;1051;-86
2021/04/13 20:01:53;;;;;;;;;;;;;;;21.46;29.08;97782.03;5110425;28;750;-86
2021/04/13 20:04:20;;;;;;;;;;;;;;;21.48;28.95;97774.66;5094057;28;1035;-86
2021/04/13 20:06:47;;;;;;;;;;;;;;;21.49;28.92;97778.28;5092373;28;1166;-86
2021/04/13 20:09:15;;;;;;;;;;;;;;;21.50;29.17;97771.38;5093843;28;1299;-86
2021/04/13 20:11:46;;;;;;;;;;;;;;;21.42;29.14;97773.66;5092570;28;1336;-86
2021/04/13 20:14:28;;;;;;;;;;;;;;;21.65;28.58;97769.72;5110997;28;738;-87
2021/04/13 20:17:04;;;;;;;;;;;;;;;22.21;27.90;97768.41;5109892;28;1953;-87
2021/04/13 20:19:31;;;;;;;;;;;;;;;22.41;27.65;97770.97;5113925;28;647;-87
2021/04/13 20:22:00;;;;;;;;;;;;;;;21.85;27.97;97770.28;5096984;28;1114;-87
2021/04/13 20:24:29;;;;;;;;;;;;;;;21.61;28.58;97766.22;5097751;28;1138;-87
2021/04/13 20:26:55;;;;;;;;;;;;;;;21.59;28.78;97763.81;5113034;28;1163;-86
2021/04/13 20:29:24;;;;;;;;;;;;;;;21.61;28.65;97769.03;5114253;28;677;-87
2021/04/13 20:32:03;;;;;;;;;;;;;;;21.49;29.17;97769.78;5113795;28;734;-86
2021/04/13 20:39:49;;;;;;;;;;;;;;;21.47;29.23;97755.31;5099356;28;1336;-87
2021/04/13 20:42:16;;;;;;;;;;;;;;;21.61;28.84;97754.09;5096853;28;1181;-87
2021/04/13 20:44:42;;;;;;;;;;;;;;;21.53;28.94;97753.50;5097185;28;1189;-86
2021/04/13 20:47:32;;;;;;;;;;;;;;;22.16;27.86;97747.09;5098889;28;1236;-86
2021/04/13 20:50:33;;;;;;;;;;;;;;;22.27;27.72;97747.53;5114692;28;738;-87
2021/04/13 20:53:21;;;;;;;;;;;;;;;21.79;28.31;97738.13;5114418;28;1002;-86
2021/04/13 20:55:52;;;;;;;;;;;;;;;21.65;28.72;97749.88;5095424;28;1070;-87
2021/04/13 20:58:54;;;;;;;;;;;;;;;21.56;28.99;97736.41;5099961;28;1915;-86
2021/04/13 21:01:32;;;;;;;;;;;;;;;21.62;28.65;97733.81;5096126;28;1293;-86
2021/04/13 21:04:00;;;;;;;;;;;;;;;21.63;28.94;97738.22;5114122;28;698;-86
2021/04/13 21:09:28;;;;;;;;;;;;;;;21.54;29.00;97730.41;5113335;28;1110;-87
2021/04/13 21:11:55;;;;;;;;;;;;;;;21.57;28.98;97738.00;5112664;28;901;-87
2021/04/13 21:14:21;;;;;;;;;;;;;;;22.14;28.25;97729.75;5096751;28;1082;-87
2021/04/13 21:16:47;;;;;;;;;;;;;;;22.35;27.85;97728.25;5095817;28;1972;-87
2021/04/13 21:19:14;;;;;;;;;;;;;;;22.07;28.04;97724.28;5113429;28;805;-87
2021/04/13 21:21:46;;;;;;;;;;;;;;;21.83;28.31;97721.81;5095524;28;1079;-87
2021/04/13 21:24:22;;;;;;;;;;;;;;;21.65;28.41;97727.22;5095693;28;1376;-87
2021/04/13 21:26:51;;;;;;;;;;;;;;;21.60;28.95;97719.31;5094434;28;1338;-86
2021/04/13 21:29:18;;;;;;;;;;;;;;;21.68;29.04;97712.19;5094675;28;1188;-87
2021/04/13 21:31:48;;;;;;;;;;;;;;;21.66;28.89;97711.84;5095153;28;1189;-86
2021/04/13 21:34:24;;;;;;;;;;;;;;;21.46;29.30;97702.78;5095955;28;1142;-87
2021/04/13 21:36:49;;;;;;;;;;;;;;;21.55;29.08;97705.72;5111792;28;1970;-87
2021/04/13 21:39:16;;;;;;;;;;;;;;;21.50;29.25;97709.91;5095254;28;1031;-87